sensor_id;sensor_type;location;lat;lon;timestamp;temperature;humidity
23597;DHT22;40226;50.874;4.394;2023-02-28T00:00:23;2.50;1.00
23597;DHT22;40226;50.874;4.394;2023-02-28T00:02:50;2.50;1.00
23597;DHT22;40226;50.874;4.394;2023-02-28T00:05:18;2.40;1.00
23597;DHT22;40226;50.874;4.394;2023-02-28T00:07:44;2.40;1.00
23597;DHT22;40226;50.874;4.394;2023-02-28T00:10:12;2.30;1.00
23597;DHT22;40226;50.874;4.394;2023-02-28T00:12:39;2.20;1.00
23597;DHT22;40226;50.874;4.394;2023-02-28T00:15:09;2.20;1.00
23597;DHT22;40226;50.874;4.394;2023-02-28T00:17:35;2.30;1.00
23597;DHT22;40226;50.874;4.394;2023-02-28T00:20:01;2.20;1.00
23597;DHT22;40226;50.874;4.394;2023-02-28T00:22:38;2.00;1.00
23597;DHT22;40226;50.874;4.394;2023-02-28T00:25:05;1.90;1.00
23597;DHT22;40226;50.874;4.394;2023-02-28T00:27:32;1.80;1.00
23597;DHT22;40226;50.874;4.394;2023-02-28T00:29:58;1.90;1.00
23597;DHT22;40226;50.874;4.394;2023-02-28T00:32:23;1.90;1.00
23597;DHT22;40226;50.874;4.394;2023-02-28T00:34:49;2.00;1.00
23597;DHT22;40226;50.874;4.394;2023-02-28T00:37:14;1.90;1.00
23597;DHT22;40226;50.874;4.394;2023-02-28T00:39:40;1.90;1.00
23597;DHT22;40226;50.874;4.394;2023-02-28T00:42:07;1.80;1.00
23597;DHT22;40226;50.874;4.394;2023-02-28T00:44:33;1.90;1.00
23597;DHT22;40226;50.874;4.394;2023-02-28T00:46:59;1.90;1.00
23597;DHT22;40226;50.874;4.394;2023-02-28T00:49:25;1.80;1.00
23597;DHT22;40226;50.874;4.394;2023-02-28T00:51:52;1.90;1.00
23597;DHT22;40226;50.874;4.394;2023-02-28T00:54:18;1.90;1.00
23597;DHT22;40226;50.874;4.394;2023-02-28T00:56:44;2.10;1.00
23597;DHT22;40226;50.874;4.394;2023-02-28T00:59:12;2.10;1.00
23597;DHT22;40226;50.874;4.394;2023-02-28T01:01:37;2.20;1.00
23597;DHT22;40226;50.874;4.394;2023-02-28T01:04:03;2.10;1.00
23597;DHT22;40226;50.874;4.394;2023-02-28T01:06:28;2.10;1.00
23597;DHT22;40226;50.874;4.394;2023-02-28T01:08:54;1.90;1.00
23597;DHT22;40226;50.874;4.394;2023-02-28T01:11:20;1.90;1.00
23597;DHT22;40226;50.874;4.394;2023-02-28T01:13:46;1.90;1.00
23597;DHT22;40226;50.874;4.394;2023-02-28T01:16:13;1.90;1.00
23597;DHT22;40226;50.874;4.394;2023-02-28T01:18:40;1.80;1.00
23597;DHT22;40226;50.874;4.394;2023-02-28T01:21:07;1.70;1.00
23597;DHT22;40226;50.874;4.394;2023-02-28T01:23:33;1.80;1.00
23597;DHT22;40226;50.874;4.394;2023-02-28T01:26:05;1.70;1.00
23597;DHT22;40226;50.874;4.394;2023-02-28T01:28:31;1.80;1.00
23597;DHT22;40226;50.874;4.394;2023-02-28T01:30:56;1.80;1.00
23597;DHT22;40226;50.874;4.394;2023-02-28T01:33:22;1.70;1.00
23597;DHT22;40226;50.874;4.394;2023-02-28T01:35:47;1.70;1.00
23597;DHT22;40226;50.874;4.394;2023-02-28T01:38:13;1.50;1.00
23597;DHT22;40226;50.874;4.394;2023-02-28T01:40:39;1.50;2.60
23597;DHT22;40226;50.874;4.394;2023-02-28T01:43:21;1.30;9.40
23597;DHT22;40226;50.874;4.394;2023-02-28T01:45:47;1.30;11.10
23597;DHT22;40226;50.874;4.394;2023-02-28T01:48:13;1.40;12.60
23597;DHT22;40226;50.874;4.394;2023-02-28T01:50:42;1.30;10.00
23597;DHT22;40226;50.874;4.394;2023-02-28T01:53:14;1.20;17.70
23597;DHT22;40226;50.874;4.394;2023-02-28T01:55:42;1.20;17.00
23597;DHT22;40226;50.874;4.394;2023-02-28T01:58:10;1.30;16.10
23597;DHT22;40226;50.874;4.394;2023-02-28T02:00:36;1.40;17.40
23597;DHT22;40226;50.874;4.394;2023-02-28T02:03:09;1.40;7.00
23597;DHT22;40226;50.874;4.394;2023-02-28T02:05:37;1.50;2.00
23597;DHT22;40226;50.874;4.394;2023-02-28T02:08:10;1.60;1.00
23597;DHT22;40226;50.874;4.394;2023-02-28T02:10:44;1.40;4.50
23597;DHT22;40226;50.874;4.394;2023-02-28T02:23:38;1.40;2.70
23597;DHT22;40226;50.874;4.394;2023-02-28T02:34:10;1.50;1.00
23597;DHT22;40226;50.874;4.394;2023-02-28T02:36:58;1.20;8.90
23597;DHT22;40226;50.874;4.394;2023-02-28T02:39:40;1.20;17.90
23597;DHT22;40226;50.874;4.394;2023-02-28T02:42:27;1.10;24.40
23597;DHT22;40226;50.874;4.394;2023-02-28T02:44:58;1.30;21.10
23597;DHT22;40226;50.874;4.394;2023-02-28T02:47:26;1.40;14.30
23597;DHT22;40226;50.874;4.394;2023-02-28T02:49:55;1.30;3.00
23597;DHT22;40226;50.874;4.394;2023-02-28T02:52:25;1.20;14.20
23597;DHT22;40226;50.874;4.394;2023-02-28T02:54:54;1.20;18.80
23597;DHT22;40226;50.874;4.394;2023-02-28T02:57:29;1.10;27.30
23597;DHT22;40226;50.874;4.394;2023-02-28T02:59:58;1.10;25.10
23597;DHT22;40226;50.874;4.394;2023-02-28T03:02:26;1.10;29.50
23597;DHT22;40226;50.874;4.394;2023-02-28T03:04:58;1.10;25.00
23597;DHT22;40226;50.874;4.394;2023-02-28T03:07:26;1.20;21.20
23597;DHT22;40226;50.874;4.394;2023-02-28T03:09:54;1.30;20.30
23597;DHT22;40226;50.874;4.394;2023-02-28T03:12:20;1.00;22.20
23597;DHT22;40226;50.874;4.394;2023-02-28T03:15:23;1.20;28.80
23597;DHT22;40226;50.874;4.394;2023-02-28T03:20:40;1.00;29.60
23597;DHT22;40226;50.874;4.394;2023-02-28T03:23:23;1.00;31.20
23597;DHT22;40226;50.874;4.394;2023-02-28T03:26:11;0.90;43.70
23597;DHT22;40226;50.874;4.394;2023-02-28T03:32:05;1.10;36.00
23597;DHT22;40226;50.874;4.394;2023-02-28T03:34:39;0.90;36.60
23597;DHT22;40226;50.874;4.394;2023-02-28T03:37:15;0.90;42.50
23597;DHT22;40226;50.874;4.394;2023-02-28T03:39:48;0.80;47.70
23597;DHT22;40226;50.874;4.394;2023-02-28T03:42:19;0.70;53.30
23597;DHT22;40226;50.874;4.394;2023-02-28T03:44:49;0.70;57.00
23597;DHT22;40226;50.874;4.394;2023-02-28T03:47:31;0.60;63.50
23597;DHT22;40226;50.874;4.394;2023-02-28T03:50:07;0.50;66.60
23597;DHT22;40226;50.874;4.394;2023-02-28T03:52:40;0.60;69.10
23597;DHT22;40226;50.874;4.394;2023-02-28T03:55:10;0.50;68.30
23597;DHT22;40226;50.874;4.394;2023-02-28T04:00:17;0.60;63.30
23597;DHT22;40226;50.874;4.394;2023-02-28T04:02:44;0.70;66.90
23597;DHT22;40226;50.874;4.394;2023-02-28T04:05:09;0.60;69.30
23597;DHT22;40226;50.874;4.394;2023-02-28T04:07:35;0.80;55.70
23597;DHT22;40226;50.874;4.394;2023-02-28T04:10:01;0.90;47.50
23597;DHT22;40226;50.874;4.394;2023-02-28T04:12:27;0.60;54.20
23597;DHT22;40226;50.874;4.394;2023-02-28T04:14:52;0.60;66.10
23597;DHT22;40226;50.874;4.394;2023-02-28T04:17:18;0.50;68.60
23597;DHT22;40226;50.874;4.394;2023-02-28T04:19:44;0.50;70.00
23597;DHT22;40226;50.874;4.394;2023-02-28T04:22:10;0.60;65.80
23597;DHT22;40226;50.874;4.394;2023-02-28T04:24:36;0.70;65.70
23597;DHT22;40226;50.874;4.394;2023-02-28T04:27:02;0.80;54.80
23597;DHT22;40226;50.874;4.394;2023-02-28T04:29:32;1.00;45.90
23597;DHT22;40226;50.874;4.394;2023-02-28T04:31:58;1.10;34.20
23597;DHT22;40226;50.874;4.394;2023-02-28T04:34:25;1.00;32.80
23597;DHT22;40226;50.874;4.394;2023-02-28T04:36:51;1.00;34.80
23597;DHT22;40226;50.874;4.394;2023-02-28T04:39:20;1.10;33.00
23597;DHT22;40226;50.874;4.394;2023-02-28T04:41:46;1.10;28.70
23597;DHT22;40226;50.874;4.394;2023-02-28T04:44:12;0.90;34.10
23597;DHT22;40226;50.874;4.394;2023-02-28T04:46:37;0.90;37.70
23597;DHT22;40226;50.874;4.394;2023-02-28T04:49:03;1.00;43.80
23597;DHT22;40226;50.874;4.394;2023-02-28T04:51:29;1.00;36.40
23597;DHT22;40226;50.874;4.394;2023-02-28T04:53:55;0.90;43.80
23597;DHT22;40226;50.874;4.394;2023-02-28T04:56:21;1.10;43.00
23597;DHT22;40226;50.874;4.394;2023-02-28T04:58:47;1.00;39.00
23597;DHT22;40226;50.874;4.394;2023-02-28T05:01:23;1.00;37.90
23597;DHT22;40226;50.874;4.394;2023-02-28T05:03:50;0.90;46.80
23597;DHT22;40226;50.874;4.394;2023-02-28T05:06:17;0.80;45.00
23597;DHT22;40226;50.874;4.394;2023-02-28T05:08:42;0.90;47.80
23597;DHT22;40226;50.874;4.394;2023-02-28T05:11:41;0.90;51.70
23597;DHT22;40226;50.874;4.394;2023-02-28T05:14:10;0.90;45.90
23597;DHT22;40226;50.874;4.394;2023-02-28T05:16:36;0.90;47.50
23597;DHT22;40226;50.874;4.394;2023-02-28T05:19:02;0.70;57.60
23597;DHT22;40226;50.874;4.394;2023-02-28T05:21:30;0.90;64.10
23597;DHT22;40226;50.874;4.394;2023-02-28T05:23:58;1.00;47.00
23597;DHT22;40226;50.874;4.394;2023-02-28T05:26:25;1.00;49.60
23597;DHT22;40226;50.874;4.394;2023-02-28T05:28:51;1.00;48.50
23597;DHT22;40226;50.874;4.394;2023-02-28T05:31:18;1.10;46.10
23597;DHT22;40226;50.874;4.394;2023-02-28T05:33:43;1.10;37.40
23597;DHT22;40226;50.874;4.394;2023-02-28T05:36:09;1.30;44.60
23597;DHT22;40226;50.874;4.394;2023-02-28T05:38:35;1.40;37.40
23597;DHT22;40226;50.874;4.394;2023-02-28T05:41:05;1.50;26.90
23597;DHT22;40226;50.874;4.394;2023-02-28T05:43:32;1.50;28.60
23597;DHT22;40226;50.874;4.394;2023-02-28T05:45:57;1.70;25.80
23597;DHT22;40226;50.874;4.394;2023-02-28T05:48:23;1.60;18.90
23597;DHT22;40226;50.874;4.394;2023-02-28T05:50:48;1.50;23.00
23597;DHT22;40226;50.874;4.394;2023-02-28T05:53:14;1.70;21.50
23597;DHT22;40226;50.874;4.394;2023-02-28T05:55:39;1.90;9.30
23597;DHT22;40226;50.874;4.394;2023-02-28T05:58:06;2.00;1.60
23597;DHT22;40226;50.874;4.394;2023-02-28T06:00:32;2.00;1.00
23597;DHT22;40226;50.874;4.394;2023-02-28T06:02:57;2.00;3.80
23597;DHT22;40226;50.874;4.394;2023-02-28T06:05:26;1.90;8.50
23597;DHT22;40226;50.874;4.394;2023-02-28T06:07:53;1.90;1.00
23597;DHT22;40226;50.874;4.394;2023-02-28T06:10:18;1.90;2.50
23597;DHT22;40226;50.874;4.394;2023-02-28T06:12:45;1.80;5.90
23597;DHT22;40226;50.874;4.394;2023-02-28T06:15:14;1.70;12.80
23597;DHT22;40226;50.874;4.394;2023-02-28T06:17:42;1.70;16.20
23597;DHT22;40226;50.874;4.394;2023-02-28T06:20:09;1.60;23.40
23597;DHT22;40226;50.874;4.394;2023-02-28T06:22:36;1.60;26.30
23597;DHT22;40226;50.874;4.394;2023-02-28T06:25:05;1.70;13.10
23597;DHT22;40226;50.874;4.394;2023-02-28T06:27:32;1.40;27.60
23597;DHT22;40226;50.874;4.394;2023-02-28T06:29:57;1.60;26.50
23597;DHT22;40226;50.874;4.394;2023-02-28T06:32:23;1.70;23.20
23597;DHT22;40226;50.874;4.394;2023-02-28T06:34:49;1.90;18.20
23597;DHT22;40226;50.874;4.394;2023-02-28T06:37:16;2.10;3.30
23597;DHT22;40226;50.874;4.394;2023-02-28T06:39:42;2.00;3.30
23597;DHT22;40226;50.874;4.394;2023-02-28T06:42:07;1.80;9.90
23597;DHT22;40226;50.874;4.394;2023-02-28T06:44:33;1.60;23.20
23597;DHT22;40226;50.874;4.394;2023-02-28T06:47:01;1.80;20.70
23597;DHT22;40226;50.874;4.394;2023-02-28T06:49:29;1.90;13.10
23597;DHT22;40226;50.874;4.394;2023-02-28T06:51:54;2.00;6.80
23597;DHT22;40226;50.874;4.394;2023-02-28T06:54:20;2.00;3.10
23597;DHT22;40226;50.874;4.394;2023-02-28T06:56:46;1.90;13.90
23597;DHT22;40226;50.874;4.394;2023-02-28T06:59:13;2.00;4.70
23597;DHT22;40226;50.874;4.394;2023-02-28T07:01:40;2.10;5.60
23597;DHT22;40226;50.874;4.394;2023-02-28T07:04:06;2.10;1.40
23597;DHT22;40226;50.874;4.394;2023-02-28T07:06:32;2.20;5.80
23597;DHT22;40226;50.874;4.394;2023-02-28T07:08:58;2.40;1.00
23597;DHT22;40226;50.874;4.394;2023-02-28T07:11:25;2.40;1.00
23597;DHT22;40226;50.874;4.394;2023-02-28T07:13:55;2.50;1.00
23597;DHT22;40226;50.874;4.394;2023-02-28T07:16:22;2.40;1.00
23597;DHT22;40226;50.874;4.394;2023-02-28T07:18:48;2.40;1.00
23597;DHT22;40226;50.874;4.394;2023-02-28T07:21:15;2.30;1.00
23597;DHT22;40226;50.874;4.394;2023-02-28T07:23:40;2.50;1.00
23597;DHT22;40226;50.874;4.394;2023-02-28T07:26:11;2.60;1.00
23597;DHT22;40226;50.874;4.394;2023-02-28T07:28:43;2.50;1.00
23597;DHT22;40226;50.874;4.394;2023-02-28T07:31:10;2.60;1.00
23597;DHT22;40226;50.874;4.394;2023-02-28T07:33:36;2.70;1.00
23597;DHT22;40226;50.874;4.394;2023-02-28T07:36:04;2.70;1.00
23597;DHT22;40226;50.874;4.394;2023-02-28T07:38:31;2.60;1.00
23597;DHT22;40226;50.874;4.394;2023-02-28T07:40:58;2.70;1.00
23597;DHT22;40226;50.874;4.394;2023-02-28T07:43:24;3.00;1.00
23597;DHT22;40226;50.874;4.394;2023-02-28T07:45:49;2.80;1.00
23597;DHT22;40226;50.874;4.394;2023-02-28T07:48:15;2.90;1.00
23597;DHT22;40226;50.874;4.394;2023-02-28T07:50:40;2.90;1.00
23597;DHT22;40226;50.874;4.394;2023-02-28T07:53:06;2.80;1.00
23597;DHT22;40226;50.874;4.394;2023-02-28T07:55:32;2.90;1.00
23597;DHT22;40226;50.874;4.394;2023-02-28T07:57:58;2.90;1.00
23597;DHT22;40226;50.874;4.394;2023-02-28T08:00:23;3.00;1.00
23597;DHT22;40226;50.874;4.394;2023-02-28T08:02:49;3.10;1.00
23597;DHT22;40226;50.874;4.394;2023-02-28T08:05:15;3.20;1.00
23597;DHT22;40226;50.874;4.394;2023-02-28T08:07:40;3.40;1.00
23597;DHT22;40226;50.874;4.394;2023-02-28T08:10:06;3.40;1.00
23597;DHT22;40226;50.874;4.394;2023-02-28T08:12:34;3.30;1.00
23597;DHT22;40226;50.874;4.394;2023-02-28T08:14:59;3.50;1.00
23597;DHT22;40226;50.874;4.394;2023-02-28T08:17:25;3.60;1.00
23597;DHT22;40226;50.874;4.394;2023-02-28T08:19:50;3.60;1.00
23597;DHT22;40226;50.874;4.394;2023-02-28T08:22:16;3.50;1.00
23597;DHT22;40226;50.874;4.394;2023-02-28T08:24:42;3.70;1.00
23597;DHT22;40226;50.874;4.394;2023-02-28T08:27:09;3.90;99.90
23597;DHT22;40226;50.874;4.394;2023-02-28T08:29:37;4.00;99.90
23597;DHT22;40226;50.874;4.394;2023-02-28T08:32:04;4.20;99.90
23597;DHT22;40226;50.874;4.394;2023-02-28T08:34:30;4.30;99.90
23597;DHT22;40226;50.874;4.394;2023-02-28T08:36:55;4.40;1.00
23597;DHT22;40226;50.874;4.394;2023-02-28T08:39:21;4.40;1.00
23597;DHT22;40226;50.874;4.394;2023-02-28T08:41:46;4.70;99.90
23597;DHT22;40226;50.874;4.394;2023-02-28T08:44:12;4.80;1.00
23597;DHT22;40226;50.874;4.394;2023-02-28T08:46:38;4.80;99.90
23597;DHT22;40226;50.874;4.394;2023-02-28T08:49:03;4.70;1.00
23597;DHT22;40226;50.874;4.394;2023-02-28T08:51:29;4.60;99.90
23597;DHT22;40226;50.874;4.394;2023-02-28T08:53:59;4.60;99.90
23597;DHT22;40226;50.874;4.394;2023-02-28T08:56:26;4.50;99.90
23597;DHT22;40226;50.874;4.394;2023-02-28T08:58:55;4.50;99.90
23597;DHT22;40226;50.874;4.394;2023-02-28T09:01:26;4.60;99.90
23597;DHT22;40226;50.874;4.394;2023-02-28T09:03:56;4.50;99.90
23597;DHT22;40226;50.874;4.394;2023-02-28T09:06:24;4.50;8.40
23597;DHT22;40226;50.874;4.394;2023-02-28T09:08:50;4.60;95.80
23597;DHT22;40226;50.874;4.394;2023-02-28T09:11:16;4.70;28.60
23597;DHT22;40226;50.874;4.394;2023-02-28T09:13:43;4.70;99.90
23597;DHT22;40226;50.874;4.394;2023-02-28T09:16:13;4.50;1.00
23597;DHT22;40226;50.874;4.394;2023-02-28T09:18:39;4.40;99.90
23597;DHT22;40226;50.874;4.394;2023-02-28T09:21:13;4.40;95.30
23597;DHT22;40226;50.874;4.394;2023-02-28T09:23:40;4.40;99.90
23597;DHT22;40226;50.874;4.394;2023-02-28T09:26:06;4.20;1.00
23597;DHT22;40226;50.874;4.394;2023-02-28T09:28:32;4.30;1.00
23597;DHT22;40226;50.874;4.394;2023-02-28T09:30:58;4.40;1.00
23597;DHT22;40226;50.874;4.394;2023-02-28T09:33:25;4.40;90.90
23597;DHT22;40226;50.874;4.394;2023-02-28T09:35:58;4.40;99.90
23597;DHT22;40226;50.874;4.394;2023-02-28T09:38:25;4.50;1.00
23597;DHT22;40226;50.874;4.394;2023-02-28T09:41:00;4.40;99.90
23597;DHT22;40226;50.874;4.394;2023-02-28T09:43:33;4.50;1.00
23597;DHT22;40226;50.874;4.394;2023-02-28T09:46:15;4.40;99.90
23597;DHT22;40226;50.874;4.394;2023-02-28T09:48:47;4.40;99.90
23597;DHT22;40226;50.874;4.394;2023-02-28T09:54:10;4.50;99.90
23597;DHT22;40226;50.874;4.394;2023-02-28T09:56:40;4.50;99.90
23597;DHT22;40226;50.874;4.394;2023-02-28T10:04:59;4.90;99.90
23597;DHT22;40226;50.874;4.394;2023-02-28T10:10:14;5.20;99.90
23597;DHT22;40226;50.874;4.394;2023-02-28T10:12:43;5.20;99.90
23597;DHT22;40226;50.874;4.394;2023-02-28T10:15:14;5.20;99.90
23597;DHT22;40226;50.874;4.394;2023-02-28T10:17:42;5.20;99.90
23597;DHT22;40226;50.874;4.394;2023-02-28T10:20:15;5.30;99.90
23597;DHT22;40226;50.874;4.394;2023-02-28T10:22:58;5.10;99.90
23597;DHT22;40226;50.874;4.394;2023-02-28T10:25:33;5.20;99.90
23597;DHT22;40226;50.874;4.394;2023-02-28T10:28:12;5.10;99.90
23597;DHT22;40226;50.874;4.394;2023-02-28T10:30:41;5.10;99.90
23597;DHT22;40226;50.874;4.394;2023-02-28T10:35:50;5.10;99.90
23597;DHT22;40226;50.874;4.394;2023-02-28T10:38:19;5.10;99.90
23597;DHT22;40226;50.874;4.394;2023-02-28T10:40:45;5.10;99.90
23597;DHT22;40226;50.874;4.394;2023-02-28T10:45:54;5.10;99.90
23597;DHT22;40226;50.874;4.394;2023-02-28T10:53:32;5.40;99.90
23597;DHT22;40226;50.874;4.394;2023-02-28T10:58:58;5.60;99.90
23597;DHT22;40226;50.874;4.394;2023-02-28T11:01:38;6.10;99.90
23597;DHT22;40226;50.874;4.394;2023-02-28T11:06:53;7.60;98.40
23597;DHT22;40226;50.874;4.394;2023-02-28T11:09:38;8.10;96.90
23597;DHT22;40226;50.874;4.394;2023-02-28T11:12:07;9.00;94.00
23597;DHT22;40226;50.874;4.394;2023-02-28T11:14:38;9.30;99.90
23597;DHT22;40226;50.874;4.394;2023-02-28T11:17:24;9.60;99.90
23597;DHT22;40226;50.874;4.394;2023-02-28T11:19:52;10.30;99.90
23597;DHT22;40226;50.874;4.394;2023-02-28T11:22:21;10.50;99.90
23597;DHT22;40226;50.874;4.394;2023-02-28T11:24:50;10.50;99.90
23597;DHT22;40226;50.874;4.394;2023-02-28T11:30:03;10.60;99.90
23597;DHT22;40226;50.874;4.394;2023-02-28T11:32:30;10.50;99.90
23597;DHT22;40226;50.874;4.394;2023-02-28T11:35:03;10.80;99.90
23597;DHT22;40226;50.874;4.394;2023-02-28T11:37:31;11.40;99.90
23597;DHT22;40226;50.874;4.394;2023-02-28T11:39:57;12.00;99.90
23597;DHT22;40226;50.874;4.394;2023-02-28T11:45:20;12.50;99.90
23597;DHT22;40226;50.874;4.394;2023-02-28T11:50:54;12.40;92.40
23597;DHT22;40226;50.874;4.394;2023-02-28T11:53:39;11.50;47.30
23597;DHT22;40226;50.874;4.394;2023-02-28T11:56:29;12.30;74.40
23597;DHT22;40226;50.874;4.394;2023-02-28T12:01:46;11.90;71.30
23597;DHT22;40226;50.874;4.394;2023-02-28T12:07:15;11.20;80.50
23597;DHT22;40226;50.874;4.394;2023-02-28T12:09:53;10.70;88.50
23597;DHT22;40226;50.874;4.394;2023-02-28T12:20:54;12.10;48.90
23597;DHT22;40226;50.874;4.394;2023-02-28T12:28:47;12.20;7.60
23597;DHT22;40226;50.874;4.394;2023-02-28T12:31:25;12.30;1.00
23597;DHT22;40226;50.874;4.394;2023-02-28T12:33:59;12.50;1.00
23597;DHT22;40226;50.874;4.394;2023-02-28T12:36:27;12.10;1.00
23597;DHT22;40226;50.874;4.394;2023-02-28T12:39:16;11.40;1.00
23597;DHT22;40226;50.874;4.394;2023-02-28T12:42:00;11.70;1.00
23597;DHT22;40226;50.874;4.394;2023-02-28T12:47:28;12.00;1.00
23597;DHT22;40226;50.874;4.394;2023-02-28T12:53:02;13.50;1.00
23597;DHT22;40226;50.874;4.394;2023-02-28T12:56:03;14.10;1.00
23597;DHT22;40226;50.874;4.394;2023-02-28T12:58:54;14.50;1.00
23597;DHT22;40226;50.874;4.394;2023-02-28T13:01:39;14.40;1.00
23597;DHT22;40226;50.874;4.394;2023-02-28T13:07:23;14.00;1.00
23597;DHT22;40226;50.874;4.394;2023-02-28T13:09:56;14.60;1.00
23597;DHT22;40226;50.874;4.394;2023-02-28T13:12:22;13.90;1.00
23597;DHT22;40226;50.874;4.394;2023-02-28T13:14:49;13.50;1.00
23597;DHT22;40226;50.874;4.394;2023-02-28T13:17:20;12.90;1.00
23597;DHT22;40226;50.874;4.394;2023-02-28T13:19:57;13.00;1.00
23597;DHT22;40226;50.874;4.394;2023-02-28T13:22:47;12.60;1.00
23597;DHT22;40226;50.874;4.394;2023-02-28T13:28:09;14.30;1.00
23597;DHT22;40226;50.874;4.394;2023-02-28T13:33:33;14.90;1.00
23597;DHT22;40226;50.874;4.394;2023-02-28T13:46:31;14.70;1.00
23597;DHT22;40226;50.874;4.394;2023-02-28T13:49:18;15.00;1.00
23597;DHT22;40226;50.874;4.394;2023-02-28T13:51:46;14.60;1.00
23597;DHT22;40226;50.874;4.394;2023-02-28T14:02:34;14.10;1.00
23597;DHT22;40226;50.874;4.394;2023-02-28T14:05:17;14.80;1.00
23597;DHT22;40226;50.874;4.394;2023-02-28T14:08:08;15.40;1.00
23597;DHT22;40226;50.874;4.394;2023-02-28T14:10:50;14.40;1.00
23597;DHT22;40226;50.874;4.394;2023-02-28T14:16:03;14.80;1.00
23597;DHT22;40226;50.874;4.394;2023-02-28T14:29:39;15.70;1.00
23597;DHT22;40226;50.874;4.394;2023-02-28T14:32:45;15.60;1.00
23597;DHT22;40226;50.874;4.394;2023-02-28T14:35:50;16.40;1.00
23597;DHT22;40226;50.874;4.394;2023-02-28T14:38:24;17.10;1.00
23597;DHT22;40226;50.874;4.394;2023-02-28T14:40:52;16.20;1.00
23597;DHT22;40226;50.874;4.394;2023-02-28T14:43:25;16.10;1.00
23597;DHT22;40226;50.874;4.394;2023-02-28T14:45:57;14.90;1.00
23597;DHT22;40226;50.874;4.394;2023-02-28T14:48:23;13.00;1.00
23597;DHT22;40226;50.874;4.394;2023-02-28T14:50:55;12.20;1.00
23597;DHT22;40226;50.874;4.394;2023-02-28T14:53:25;11.00;1.00
23597;DHT22;40226;50.874;4.394;2023-02-28T14:55:51;10.40;1.00
23597;DHT22;40226;50.874;4.394;2023-02-28T14:58:28;10.20;1.00
23597;DHT22;40226;50.874;4.394;2023-02-28T15:00:57;9.70;1.00
23597;DHT22;40226;50.874;4.394;2023-02-28T15:03:39;9.40;1.00
23597;DHT22;40226;50.874;4.394;2023-02-28T15:06:17;9.10;1.00
23597;DHT22;40226;50.874;4.394;2023-02-28T15:08:44;8.70;1.00
23597;DHT22;40226;50.874;4.394;2023-02-28T15:11:13;8.50;1.00
23597;DHT22;40226;50.874;4.394;2023-02-28T15:13:43;8.40;1.00
23597;DHT22;40226;50.874;4.394;2023-02-28T15:16:20;8.30;1.00
23597;DHT22;40226;50.874;4.394;2023-02-28T15:21:42;8.00;1.00
23597;DHT22;40226;50.874;4.394;2023-02-28T15:24:41;7.80;1.00
23597;DHT22;40226;50.874;4.394;2023-02-28T15:27:12;7.80;1.00
23597;DHT22;40226;50.874;4.394;2023-02-28T15:29:59;7.50;1.00
23597;DHT22;40226;50.874;4.394;2023-02-28T15:32:29;7.30;1.00
23597;DHT22;40226;50.874;4.394;2023-02-28T15:34:55;7.30;1.00
23597;DHT22;40226;50.874;4.394;2023-02-28T15:37:40;7.20;1.00
23597;DHT22;40226;50.874;4.394;2023-02-28T15:40:28;7.00;1.00
23597;DHT22;40226;50.874;4.394;2023-02-28T15:43:12;7.00;1.00
23597;DHT22;40226;50.874;4.394;2023-02-28T15:45:54;7.00;1.00
23597;DHT22;40226;50.874;4.394;2023-02-28T15:48:23;7.10;1.00
23597;DHT22;40226;50.874;4.394;2023-02-28T15:50:54;7.00;1.00
23597;DHT22;40226;50.874;4.394;2023-02-28T15:53:24;6.80;1.00
23597;DHT22;40226;50.874;4.394;2023-02-28T15:56:02;6.80;1.00
23597;DHT22;40226;50.874;4.394;2023-02-28T15:58:29;6.70;1.00
23597;DHT22;40226;50.874;4.394;2023-02-28T16:01:08;6.70;1.00
23597;DHT22;40226;50.874;4.394;2023-02-28T16:03:45;6.80;1.00
23597;DHT22;40226;50.874;4.394;2023-02-28T16:08:50;6.70;1.00
23597;DHT22;40226;50.874;4.394;2023-02-28T16:11:17;6.70;1.00
23597;DHT22;40226;50.874;4.394;2023-02-28T16:13:44;6.80;1.00
23597;DHT22;40226;50.874;4.394;2023-02-28T16:16:18;6.70;1.00
23597;DHT22;40226;50.874;4.394;2023-02-28T16:18:44;6.60;1.00
23597;DHT22;40226;50.874;4.394;2023-02-28T16:21:10;6.50;1.00
23597;DHT22;40226;50.874;4.394;2023-02-28T16:23:36;6.40;1.00
23597;DHT22;40226;50.874;4.394;2023-02-28T16:26:03;6.40;1.00
23597;DHT22;40226;50.874;4.394;2023-02-28T16:28:38;6.40;1.00
23597;DHT22;40226;50.874;4.394;2023-02-28T16:31:06;6.40;1.00
23597;DHT22;40226;50.874;4.394;2023-02-28T16:33:32;6.40;1.00
23597;DHT22;40226;50.874;4.394;2023-02-28T16:35:59;6.40;1.00
23597;DHT22;40226;50.874;4.394;2023-02-28T16:38:25;6.40;1.00
23597;DHT22;40226;50.874;4.394;2023-02-28T16:40:51;6.40;1.00
23597;DHT22;40226;50.874;4.394;2023-02-28T16:43:21;6.40;1.00
23597;DHT22;40226;50.874;4.394;2023-02-28T16:45:48;6.20;1.00
23597;DHT22;40226;50.874;4.394;2023-02-28T16:48:16;6.30;1.00
23597;DHT22;40226;50.874;4.394;2023-02-28T16:50:42;6.10;1.00
23597;DHT22;40226;50.874;4.394;2023-02-28T16:53:09;6.30;1.00
23597;DHT22;40226;50.874;4.394;2023-02-28T16:55:35;6.20;1.00
23597;DHT22;40226;50.874;4.394;2023-02-28T16:58:01;6.20;1.00
23597;DHT22;40226;50.874;4.394;2023-02-28T17:00:31;6.10;1.00
23597;DHT22;40226;50.874;4.394;2023-02-28T17:02:57;5.90;1.60
23597;DHT22;40226;50.874;4.394;2023-02-28T17:05:25;5.90;18.60
23597;DHT22;40226;50.874;4.394;2023-02-28T17:07:51;6.00;23.20
23597;DHT22;40226;50.874;4.394;2023-02-28T17:10:23;5.90;29.50
23597;DHT22;40226;50.874;4.394;2023-02-28T17:12:51;6.00;45.20
23597;DHT22;40226;50.874;4.394;2023-02-28T17:15:19;6.00;51.00
23597;DHT22;40226;50.874;4.394;2023-02-28T17:17:46;6.00;66.40
23597;DHT22;40226;50.874;4.394;2023-02-28T17:20:17;6.10;65.90
23597;DHT22;40226;50.874;4.394;2023-02-28T17:22:43;5.90;63.50
23597;DHT22;40226;50.874;4.394;2023-02-28T17:25:09;5.80;71.90
23597;DHT22;40226;50.874;4.394;2023-02-28T17:27:36;5.80;76.20
23597;DHT22;40226;50.874;4.394;2023-02-28T17:30:25;5.70;92.80
23597;DHT22;40226;50.874;4.394;2023-02-28T17:32:49;5.90;99.00
23597;DHT22;40226;50.874;4.394;2023-02-28T17:35:15;5.80;82.90
23597;DHT22;40226;50.874;4.394;2023-02-28T17:37:41;5.80;95.50
23597;DHT22;40226;50.874;4.394;2023-02-28T17:40:13;5.60;99.90
23597;DHT22;40226;50.874;4.394;2023-02-28T17:42:39;5.70;99.90
23597;DHT22;40226;50.874;4.394;2023-02-28T17:45:05;5.70;99.90
23597;DHT22;40226;50.874;4.394;2023-02-28T17:47:31;5.60;99.90
23597;DHT22;40226;50.874;4.394;2023-02-28T17:49:56;5.60;99.90
23597;DHT22;40226;50.874;4.394;2023-02-28T17:52:22;5.60;99.90
23597;DHT22;40226;50.874;4.394;2023-02-28T17:54:48;5.50;99.90
23597;DHT22;40226;50.874;4.394;2023-02-28T17:57:16;5.40;99.90
23597;DHT22;40226;50.874;4.394;2023-02-28T17:59:43;5.50;99.90
23597;DHT22;40226;50.874;4.394;2023-02-28T18:02:12;5.30;99.90
23597;DHT22;40226;50.874;4.394;2023-02-28T18:04:38;5.40;99.90
23597;DHT22;40226;50.874;4.394;2023-02-28T18:07:03;5.50;99.90
23597;DHT22;40226;50.874;4.394;2023-02-28T18:09:30;5.50;99.90
23597;DHT22;40226;50.874;4.394;2023-02-28T18:11:56;5.40;99.90
23597;DHT22;40226;50.874;4.394;2023-02-28T18:14:23;5.30;99.90
23597;DHT22;40226;50.874;4.394;2023-02-28T18:16:52;5.20;99.90
23597;DHT22;40226;50.874;4.394;2023-02-28T18:19:18;5.10;99.90
23597;DHT22;40226;50.874;4.394;2023-02-28T18:21:47;5.10;99.90
23597;DHT22;40226;50.874;4.394;2023-02-28T18:24:14;5.10;99.90